createdAt,value
2019-01-23T00:00:43.273Z,37.27
2019-01-23T00:03:11.891Z,35.73
2019-01-23T00:05:40.828Z,37.73
2019-01-23T00:08:09.425Z,34.93
2019-01-23T00:10:38.043Z,36.50
2019-01-23T00:13:06.642Z,36.43
2019-01-23T00:15:35.245Z,34.67
2019-01-23T00:18:03.876Z,34.90
2019-01-23T00:20:32.460Z,37.83
2019-01-23T00:23:01.083Z,33.10
2019-01-23T00:25:29.686Z,37.87
2019-01-23T00:27:58.295Z,38.90
2019-01-23T00:30:26.895Z,37.73
2019-01-23T00:32:55.511Z,36.33
2019-01-23T00:35:24.442Z,35.17
2019-01-23T00:37:53.051Z,36.50
2019-01-23T00:40:21.660Z,37.60
2019-01-23T00:42:50.576Z,36.80
2019-01-23T00:45:19.259Z,35.00
2019-01-23T00:47:48.141Z,35.07
2019-01-23T00:50:16.733Z,36.63
2019-01-23T00:52:45.367Z,36.50
2019-01-23T00:55:16.984Z,37.67
2019-01-23T00:57:45.582Z,34.63
2019-01-23T01:02:53.452Z,38.83
2019-01-23T01:05:22.035Z,33.77
2019-01-23T01:07:50.654Z,37.90
2019-01-23T01:10:19.613Z,36.87
2019-01-23T01:12:48.606Z,35.00
2019-01-23T01:15:17.483Z,40.93
2019-01-23T01:17:46.119Z,38.23
2019-01-23T01:20:14.754Z,36.33
2019-01-23T01:22:43.386Z,37.23
2019-01-23T01:25:12.015Z,36.37
2019-01-23T01:27:40.915Z,34.30
2019-01-23T01:30:15.532Z,36.27
2019-01-23T01:32:44.418Z,37.10
2019-01-23T01:35:13.306Z,37.80
2019-01-23T01:37:42.316Z,38.47
2019-01-23T01:40:14.462Z,34.93
2019-01-23T01:42:43.062Z,35.93
2019-01-23T01:45:12.028Z,38.83
2019-01-23T01:47:40.931Z,37.10
2019-01-23T01:50:12.572Z,38.37
2019-01-23T01:52:41.172Z,39.80
2019-01-23T01:55:09.785Z,43.47
2019-01-23T01:57:38.417Z,38.73
2019-01-23T02:02:45.417Z,40.80
2019-01-23T02:05:14.049Z,42.63
2019-01-23T02:07:42.683Z,36.50
2019-01-23T02:10:11.665Z,39.60
2019-01-23T02:12:40.298Z,35.57
2019-01-23T02:15:08.922Z,40.87
2019-01-23T02:17:37.554Z,44.07
2019-01-23T02:22:54.046Z,36.97
2019-01-23T02:25:22.664Z,38.10
2019-01-23T02:27:51.279Z,35.77
2019-01-23T02:30:19.899Z,42.63
2019-01-23T02:32:48.532Z,35.10
2019-01-23T02:35:17.170Z,38.70
2019-01-23T02:37:46.133Z,41.07
2019-01-23T02:40:14.779Z,36.87
2019-01-23T02:42:43.400Z,37.43
2019-01-23T02:45:12.023Z,41.07
2019-01-23T02:47:40.636Z,34.70
2019-01-23T02:50:09.556Z,39.00
2019-01-23T02:52:38.538Z,41.10
2019-01-23T02:55:07.199Z,39.30
2019-01-23T02:57:36.114Z,41.83
2019-01-23T03:00:07.768Z,41.67
2019-01-23T03:02:36.672Z,38.10
2019-01-23T03:05:05.306Z,40.43
2019-01-23T03:07:34.021Z,40.93
2019-01-23T03:10:02.653Z,44.23
2019-01-23T03:12:31.591Z,44.93
2019-01-23T03:15:00.198Z,40.63
2019-01-23T03:17:28.805Z,42.90
2019-01-23T03:19:57.417Z,41.70
2019-01-23T03:22:26.330Z,41.53
2019-01-23T03:24:55.212Z,44.60
2019-01-23T03:27:24.205Z,42.23
2019-01-23T03:29:52.833Z,44.00
2019-01-23T03:32:21.454Z,46.57
2019-01-23T03:34:50.056Z,41.03
2019-01-23T03:37:18.685Z,41.03
2019-01-23T03:39:47.284Z,41.20
2019-01-23T03:42:15.899Z,42.33
2019-01-23T03:44:44.787Z,41.33
2019-01-23T03:47:13.400Z,39.77
2019-01-23T03:49:42.035Z,41.20
2019-01-23T03:52:10.621Z,39.83
2019-01-23T03:54:39.536Z,40.87
2019-01-23T03:57:08.143Z,42.27
2019-01-23T03:59:36.779Z,37.20
2019-01-23T04:02:05.399Z,41.43
2019-01-23T04:04:34.058Z,39.10
2019-01-23T04:07:02.669Z,39.77
2019-01-23T04:09:31.623Z,37.10
2019-01-23T04:12:00.514Z,39.60
2019-01-23T04:14:29.507Z,39.43
2019-01-23T04:16:58.112Z,45.00
2019-01-23T04:19:27.105Z,42.90
2019-01-23T04:21:55.966Z,39.93
2019-01-23T04:24:24.571Z,40.67
2019-01-23T04:26:53.234Z,40.90
2019-01-23T04:29:21.840Z,42.50
2019-01-23T04:31:50.439Z,41.30
2019-01-23T04:34:19.075Z,41.00
2019-01-23T04:36:47.682Z,39.03
2019-01-23T04:39:16.674Z,37.63
2019-01-23T04:41:45.280Z,38.93
2019-01-23T04:44:14.169Z,42.50
2019-01-23T04:46:42.792Z,40.57
2019-01-23T04:49:11.456Z,38.60
2019-01-23T04:51:40.064Z,43.63
2019-01-23T04:54:08.739Z,36.37
2019-01-23T04:56:37.360Z,41.63
2019-01-23T04:59:06.219Z,37.50
2019-01-23T05:01:34.843Z,36.90
2019-01-23T05:04:03.500Z,38.53
2019-01-23T05:06:32.104Z,38.43
2019-01-23T05:09:00.719Z,39.23
2019-01-23T05:11:29.335Z,37.50
2019-01-23T05:13:57.957Z,37.50
2019-01-23T05:16:26.562Z,39.23
2019-01-23T05:18:55.188Z,40.03
2019-01-23T05:21:23.788Z,37.23
2019-01-23T05:23:52.390Z,39.00
2019-01-23T05:26:21.022Z,38.93
2019-01-23T05:28:50.016Z,35.33
2019-01-23T05:31:18.619Z,38.93
2019-01-23T05:33:47.632Z,39.70
2019-01-23T05:36:16.229Z,37.80
2019-01-23T05:38:45.182Z,40.00
2019-01-23T05:41:14.139Z,34.70
2019-01-23T05:43:42.757Z,38.80
2019-01-23T05:46:11.363Z,39.40
2019-01-23T05:48:39.988Z,36.00
2019-01-23T05:51:08.595Z,37.33
2019-01-23T05:53:37.255Z,40.37
2019-01-23T05:56:05.873Z,39.73
2019-01-23T05:58:34.833Z,44.03
2019-01-23T06:01:03.431Z,40.80
2019-01-23T06:03:32.277Z,39.07
2019-01-23T06:08:39.183Z,40.03
2019-01-23T06:11:07.797Z,40.90
2019-01-23T06:13:36.470Z,40.40
2019-01-23T06:16:05.444Z,41.80
2019-01-23T06:18:34.077Z,51.00
2019-01-23T06:21:03.080Z,45.70
2019-01-23T06:23:31.935Z,40.40
2019-01-23T06:26:00.556Z,35.83
2019-01-23T06:28:29.151Z,39.27
2019-01-23T06:30:58.054Z,40.73
2019-01-23T06:33:27.063Z,38.17
2019-01-23T06:35:55.683Z,42.87
2019-01-23T06:38:24.295Z,41.87
2019-01-23T06:40:52.916Z,47.47
2019-01-23T06:43:21.790Z,42.33
2019-01-23T06:45:50.689Z,40.97
2019-01-23T06:48:19.323Z,41.67
2019-01-23T06:50:47.939Z,40.07
2019-01-23T06:53:16.828Z,41.57
2019-01-23T06:55:45.818Z,43.50
2019-01-23T06:58:14.422Z,36.40
2019-01-23T07:00:43.050Z,41.77
2019-01-23T07:03:11.677Z,44.47
2019-01-23T07:05:40.305Z,41.67
2019-01-23T07:08:09.231Z,38.33
2019-01-23T07:10:37.866Z,40.13
2019-01-23T07:13:06.808Z,42.20
2019-01-23T07:15:35.804Z,46.20
2019-01-23T07:18:04.418Z,44.97
2019-01-23T07:20:33.037Z,42.50
2019-01-23T07:23:01.943Z,46.40
2019-01-23T07:25:30.567Z,38.70
2019-01-23T07:27:59.265Z,47.80
2019-01-23T07:30:37.451Z,42.03
2019-01-23T07:33:06.410Z,44.13
2019-01-23T07:35:35.328Z,48.90
2019-01-23T07:38:03.921Z,45.00
2019-01-23T07:40:32.874Z,45.10
2019-01-23T07:43:01.486Z,45.83
2019-01-23T07:45:30.119Z,39.10
2019-01-23T07:47:58.993Z,46.77
2019-01-23T07:50:27.918Z,44.10
2019-01-23T07:52:56.756Z,45.30
2019-01-23T07:55:25.385Z,41.57
2019-01-23T07:57:54.033Z,46.87
2019-01-23T08:00:22.963Z,44.90
2019-01-23T08:02:51.604Z,46.40
2019-01-23T08:05:20.531Z,48.57
2019-01-23T08:07:49.137Z,41.50
2019-01-23T08:10:17.775Z,44.70
2019-01-23T08:12:46.417Z,53.87
2019-01-23T08:15:20.884Z,83.57
2019-01-23T08:17:49.484Z,73.27
2019-01-23T08:20:18.134Z,53.53
2019-01-23T08:22:46.752Z,51.97
2019-01-23T08:25:15.401Z,54.30
2019-01-23T08:27:44.003Z,50.87
2019-01-23T08:32:51.183Z,58.87
2019-01-23T08:35:20.087Z,49.80
2019-01-23T08:37:48.991Z,52.50
2019-01-23T08:40:17.627Z,49.67
2019-01-23T08:42:46.597Z,54.03
2019-01-23T08:45:15.548Z,50.67
2019-01-23T08:47:44.534Z,57.07
2019-01-23T08:53:00.603Z,60.23
2019-01-23T08:55:29.210Z,56.50
2019-01-23T08:57:58.098Z,56.37
2019-01-23T09:00:26.716Z,55.27
2019-01-23T09:02:55.316Z,54.67
2019-01-23T09:05:23.935Z,58.00
2019-01-23T09:07:52.548Z,55.30
2019-01-23T09:12:59.777Z,56.93
2019-01-23T09:15:28.724Z,61.17
2019-01-23T09:17:57.615Z,58.87
2019-01-23T09:20:26.258Z,58.03
2019-01-23T09:22:54.866Z,57.70
2019-01-23T09:25:26.700Z,57.20
2019-01-23T09:27:55.622Z,60.17
2019-01-23T09:30:24.614Z,54.77
2019-01-23T09:33:08.273Z,63.27
2019-01-23T09:35:43.073Z,54.20
2019-01-23T09:38:20.722Z,58.73
2019-01-23T09:40:52.042Z,60.00
2019-01-23T09:43:24.285Z,54.37
2019-01-23T09:45:58.843Z,53.90
2019-01-23T09:48:30.475Z,53.10
2019-01-23T09:51:23.902Z,55.23
2019-01-23T09:53:52.525Z,55.30
2019-01-23T09:56:21.183Z,57.03
2019-01-23T09:58:50.038Z,61.40
2019-01-23T10:01:18.663Z,65.47
2019-01-23T10:03:47.266Z,62.37
2019-01-23T10:06:15.865Z,62.27
2019-01-23T10:08:44.466Z,61.93
2019-01-23T10:11:13.075Z,62.30
2019-01-23T10:13:41.716Z,59.53
2019-01-23T10:16:10.358Z,63.00
2019-01-23T10:18:38.966Z,56.70
2019-01-23T10:21:07.918Z,62.70
2019-01-23T10:23:36.573Z,60.47
2019-01-23T10:26:05.594Z,62.13
2019-01-23T10:28:34.483Z,61.20
2019-01-23T10:31:06.750Z,55.00
2019-01-23T10:33:31.753Z,61.27
2019-01-23T10:36:01.445Z,64.23
2019-01-23T10:41:09.474Z,65.57
2019-01-23T10:43:38.079Z,68.63
2019-01-23T10:46:06.726Z,68.37
2019-01-23T10:48:38.027Z,70.27
2019-01-23T10:51:04.614Z,69.87
2019-01-23T10:53:33.209Z,68.27
2019-01-23T10:56:02.189Z,68.23
2019-01-23T10:58:31.081Z,64.27
2019-01-23T11:00:59.961Z,61.77
2019-01-23T11:03:28.568Z,62.07
2019-01-23T11:05:57.537Z,60.63
2019-01-23T11:08:26.148Z,61.70
2019-01-23T11:10:55.146Z,60.27
2019-01-23T11:13:23.728Z,63.73
2019-01-23T11:15:52.339Z,72.93
2019-01-23T11:18:21.262Z,56.40
2019-01-23T11:20:50.253Z,61.83
2019-01-23T11:23:19.323Z,63.53
2019-01-23T11:25:48.231Z,63.47
2019-01-23T11:28:16.841Z,68.33
2019-01-23T11:30:45.800Z,63.03
2019-01-23T11:33:14.691Z,66.53
2019-01-23T11:35:43.288Z,61.67
2019-01-23T11:38:11.927Z,66.90
2019-01-23T11:40:40.568Z,67.50
2019-01-23T11:43:09.200Z,64.57
2019-01-23T11:45:37.813Z,61.93
2019-01-23T11:48:06.799Z,67.03
2019-01-23T11:50:35.406Z,66.63
2019-01-23T11:53:04.047Z,64.57
2019-01-23T11:55:32.650Z,62.23
2019-01-23T11:58:01.272Z,67.17
2019-01-23T12:00:30.215Z,71.80
2019-01-23T12:02:59.202Z,65.43
2019-01-23T12:05:28.193Z,63.77
2019-01-23T12:07:56.817Z,66.30
2019-01-23T12:10:25.460Z,69.67
2019-01-23T12:12:54.074Z,62.23
2019-01-23T12:15:25.799Z,67.87
2019-01-23T12:17:54.427Z,69.00
2019-01-23T12:20:23.037Z,62.43
2019-01-23T12:22:51.924Z,65.10
2019-01-23T12:25:20.512Z,67.93
2019-01-23T12:27:49.142Z,63.13
2019-01-23T12:32:56.664Z,61.77
2019-01-23T12:35:25.247Z,67.17
2019-01-23T12:37:53.885Z,67.27
2019-01-23T12:40:22.478Z,63.90
2019-01-23T12:42:51.454Z,58.97
2019-01-23T12:45:25.898Z,61.00
2019-01-23T12:47:54.522Z,64.50
2019-01-23T12:50:23.444Z,64.07
2019-01-23T12:52:52.087Z,65.67
2019-01-23T12:55:20.685Z,68.57
2019-01-23T12:57:49.324Z,58.27
2019-01-23T13:02:56.523Z,44.93
2019-01-23T13:05:25.477Z,46.80
2019-01-23T13:07:54.087Z,46.23
2019-01-23T13:10:22.722Z,45.07
2019-01-23T13:12:51.469Z,50.60
2019-01-23T13:15:24.515Z,50.73
2019-01-23T13:17:53.243Z,47.10
2019-01-23T13:20:21.910Z,45.90
2019-01-23T13:22:50.625Z,56.07
2019-01-23T13:25:19.263Z,53.10
2019-01-23T13:27:48.346Z,49.37
2019-01-23T13:30:16.978Z,46.07
2019-01-23T13:32:45.710Z,53.77
2019-01-23T13:35:14.396Z,54.97
2019-01-23T13:37:43.387Z,55.73
2019-01-23T13:42:50.776Z,53.73
2019-01-23T13:45:19.809Z,64.03
2019-01-23T13:47:48.764Z,69.17
2019-01-23T13:50:17.758Z,60.37
2019-01-23T13:52:46.782Z,67.37
2019-01-23T13:55:15.414Z,67.07
2019-01-23T13:57:44.135Z,64.77
2019-01-23T14:00:12.872Z,63.40
2019-01-23T14:02:43.046Z,68.33
2019-01-23T14:05:12.139Z,70.20
2019-01-23T14:07:41.315Z,65.90
2019-01-23T14:12:48.627Z,70.93
2019-01-23T14:15:23.241Z,67.17
2019-01-23T14:17:52.151Z,68.60
2019-01-23T14:20:21.212Z,75.37
2019-01-23T14:22:50.040Z,65.93
2019-01-23T14:25:18.878Z,75.03
2019-01-23T14:27:47.638Z,72.30
2019-01-23T14:33:04.483Z,75.03
2019-01-23T14:35:33.748Z,75.70
2019-01-23T14:38:02.697Z,79.13
2019-01-23T14:40:31.885Z,80.97
2019-01-23T14:43:00.825Z,85.27
2019-01-23T14:45:30.089Z,81.20
2019-01-23T14:47:59.122Z,71.97
2019-01-23T14:50:28.358Z,82.63
2019-01-23T14:52:57.164Z,77.37
2019-01-23T14:55:25.844Z,79.97
2019-01-23T14:57:54.669Z,85.00
2019-01-23T15:00:26.477Z,77.07
2019-01-23T15:02:55.766Z,74.00
2019-01-23T15:05:24.796Z,80.30
2019-01-23T15:07:53.763Z,82.30
2019-01-23T15:13:01.874Z,85.47
2019-01-23T15:15:31.094Z,82.93
2019-01-23T15:18:00.290Z,85.60
2019-01-23T15:23:14.702Z,82.43
2019-01-23T15:25:44.026Z,83.57
2019-01-23T15:28:13.029Z,84.57
2019-01-23T15:30:42.520Z,90.20
2019-01-23T15:33:11.935Z,92.07
2019-01-23T15:35:41.097Z,90.47
2019-01-23T15:38:10.620Z,93.53
2019-01-23T15:40:39.805Z,97.97
2019-01-23T15:43:09.005Z,92.17
2019-01-23T15:45:38.508Z,101.60
2019-01-23T15:48:07.598Z,92.97
2019-01-23T15:50:36.572Z,88.77
2019-01-23T15:53:05.682Z,94.17
2019-01-23T15:55:34.762Z,95.27
2019-01-23T15:58:03.986Z,101.23
2019-01-23T16:00:33.162Z,96.67
2019-01-23T16:03:02.689Z,96.33
2019-01-23T16:05:31.863Z,102.97
2019-01-23T16:08:00.942Z,94.93
2019-01-23T16:10:30.216Z,92.63
2019-01-23T16:12:59.232Z,96.17
2019-01-23T16:15:28.226Z,100.27
2019-01-23T16:17:57.562Z,98.87
2019-01-23T16:20:26.446Z,103.40
2019-01-23T16:22:55.616Z,102.60
2019-01-23T16:25:24.723Z,88.77
2019-01-23T16:27:53.927Z,94.67
2019-01-23T16:30:23.434Z,97.87
2019-01-23T16:32:52.570Z,94.13
2019-01-23T16:35:21.711Z,82.03
2019-01-23T16:37:51.176Z,92.20
2019-01-23T16:40:20.610Z,93.23
2019-01-23T16:42:50.123Z,97.73
2019-01-23T16:45:19.352Z,96.73
2019-01-23T16:47:48.491Z,104.13
2019-01-23T16:50:17.908Z,112.33
2019-01-23T16:52:47.078Z,102.07
2019-01-23T16:55:16.302Z,99.27
2019-01-23T16:57:45.802Z,98.53
2019-01-23T17:00:15.272Z,99.40
2019-01-23T17:02:44.526Z,105.87
2019-01-23T17:07:55.882Z,101.23
2019-01-23T17:10:24.873Z,100.67
2019-01-23T17:12:53.855Z,95.60
2019-01-23T17:15:23.154Z,113.63
2019-01-23T17:17:52.777Z,116.17
2019-01-23T17:23:04.222Z,102.53
2019-01-23T17:25:33.520Z,97.57
2019-01-23T17:28:02.644Z,90.50
2019-01-23T17:30:31.761Z,89.50
2019-01-23T17:33:00.936Z,90.60
2019-01-23T17:35:30.158Z,92.97
2019-01-23T17:37:59.568Z,92.77
2019-01-23T17:40:28.812Z,92.17
2019-01-23T17:42:57.939Z,83.67
2019-01-23T17:45:33.597Z,84.83
2019-01-23T17:48:02.887Z,83.70
2019-01-23T17:50:32.345Z,96.57
2019-01-23T17:53:01.566Z,87.53
2019-01-23T17:55:31.098Z,101.00
2019-01-23T17:58:00.536Z,97.80
2019-01-23T18:00:29.975Z,85.93
2019-01-23T18:02:59.202Z,95.23
2019-01-23T18:05:28.530Z,90.43
2019-01-23T18:07:57.787Z,103.27
2019-01-23T18:10:27.176Z,94.17
2019-01-23T18:12:56.397Z,98.23
2019-01-23T18:18:07.698Z,113.67
2019-01-23T18:20:37.273Z,97.97
2019-01-23T18:23:06.478Z,100.90
2019-01-23T18:25:35.893Z,101.63
2019-01-23T18:28:05.481Z,101.90
2019-01-23T18:36:10.978Z,101.60
2019-01-23T18:44:31.285Z,136.50
2019-01-23T18:47:06.287Z,139.33
2019-01-23T18:50:02.803Z,146.37
2019-01-23T18:52:32.384Z,140.20
2019-01-23T18:55:01.872Z,152.23
2019-01-23T18:57:31.135Z,146.67
2019-01-23T19:00:00.455Z,143.97
2019-01-23T19:02:30.269Z,149.60
2019-01-23T19:04:59.772Z,144.63
2019-01-23T19:07:29.247Z,145.30
2019-01-23T19:09:58.977Z,151.63
2019-01-23T19:12:28.183Z,144.83
2019-01-23T19:14:57.558Z,141.47
2019-01-23T19:17:26.973Z,118.80
2019-01-23T19:19:56.400Z,141.97
2019-01-23T19:22:25.754Z,152.23
2019-01-23T19:24:55.324Z,155.07
2019-01-23T19:27:24.753Z,138.17
2019-01-23T19:29:54.383Z,172.07
2019-01-23T19:32:23.774Z,148.87
2019-01-23T19:34:53.237Z,155.70
2019-01-23T19:37:22.585Z,164.07
2019-01-23T19:39:52.012Z,146.37
2019-01-23T19:42:21.501Z,168.17
2019-01-23T19:44:50.881Z,161.63
2019-01-23T19:47:20.590Z,164.07
2019-01-23T19:49:50.062Z,143.47
2019-01-23T19:52:19.813Z,170.23
2019-01-23T19:54:49.413Z,159.53
2019-01-23T19:57:18.610Z,160.07
2019-01-23T19:59:47.985Z,154.93
2019-01-23T20:02:17.418Z,159.07
2019-01-23T20:04:47.039Z,173.17
2019-01-23T20:07:16.414Z,175.30
2019-01-23T20:09:45.790Z,168.87
2019-01-23T20:12:15.773Z,162.47
2019-01-23T20:14:44.902Z,159.03
2019-01-23T20:17:14.302Z,148.90
2019-01-23T20:19:43.728Z,140.77
2019-01-23T20:22:13.031Z,148.57
2019-01-23T20:24:42.408Z,159.97
2019-01-23T20:27:11.834Z,155.27
2019-01-23T20:29:41.124Z,171.40
2019-01-23T20:32:10.526Z,172.73
2019-01-23T20:34:40.166Z,174.47
2019-01-23T20:37:09.516Z,183.73
2019-01-23T20:39:38.948Z,168.77
2019-01-23T20:42:08.320Z,167.53
2019-01-23T20:44:37.704Z,167.73
2019-01-23T20:47:07.043Z,173.90
2019-01-23T20:49:36.633Z,163.20
2019-01-23T20:52:05.929Z,171.10
2019-01-23T20:54:35.126Z,160.97
2019-01-23T20:57:04.836Z,176.00
2019-01-23T20:59:34.009Z,159.83
2019-01-23T21:02:03.601Z,167.17
2019-01-23T21:04:32.912Z,168.97
2019-01-23T21:07:02.217Z,143.60
2019-01-23T21:09:31.627Z,168.13
2019-01-23T21:12:01.337Z,151.77
2019-01-23T21:14:30.817Z,155.00
2019-01-23T21:17:00.244Z,160.93
2019-01-23T21:19:29.850Z,154.97
2019-01-23T21:21:59.159Z,153.83
2019-01-23T21:24:28.370Z,158.17
2019-01-23T21:26:57.550Z,119.27
2019-01-23T21:29:26.751Z,141.53
2019-01-23T21:31:56.233Z,162.27
2019-01-23T21:34:25.470Z,145.10
2019-01-23T21:36:54.894Z,151.57
2019-01-23T21:39:24.336Z,136.63
2019-01-23T21:41:53.417Z,151.33
2019-01-23T21:44:22.923Z,144.10
2019-01-23T21:46:52.382Z,139.60
2019-01-23T21:49:21.630Z,144.00
2019-01-23T21:51:50.836Z,132.40
2019-01-23T21:54:20.328Z,148.63
2019-01-23T21:56:49.856Z,145.23
2019-01-23T22:01:58.163Z,137.47
2019-01-23T22:04:27.137Z,141.73
2019-01-23T22:06:56.229Z,116.83
2019-01-23T22:09:25.538Z,129.83
2019-01-23T22:11:54.739Z,135.57
2019-01-23T22:14:24.133Z,133.90
2019-01-23T22:16:53.433Z,131.40
2019-01-23T22:19:22.396Z,127.17
2019-01-23T22:21:51.361Z,128.87
2019-01-23T22:24:20.281Z,122.90
2019-01-23T22:26:49.295Z,121.90
2019-01-23T22:29:18.259Z,116.33
2019-01-23T22:31:47.080Z,123.40
2019-01-23T22:34:16.161Z,123.03
2019-01-23T22:36:44.822Z,117.50
2019-01-23T22:39:13.840Z,124.87
2019-01-23T22:41:42.860Z,111.63
2019-01-23T22:44:11.720Z,99.37
2019-01-23T22:46:40.702Z,131.50
2019-01-23T22:49:09.698Z,119.27
2019-01-23T22:51:38.304Z,108.90
2019-01-23T22:54:06.923Z,117.50
2019-01-23T22:56:35.544Z,123.90
2019-01-23T22:59:04.164Z,103.80
2019-01-23T23:01:32.964Z,107.73
2019-01-23T23:04:03.337Z,114.90
2019-01-23T23:06:30.204Z,110.70
2019-01-23T23:08:58.811Z,121.00
2019-01-23T23:11:27.429Z,111.40
2019-01-23T23:13:56.328Z,94.57
2019-01-23T23:16:24.961Z,107.00
2019-01-23T23:18:53.900Z,116.10
2019-01-23T23:21:22.494Z,112.93
2019-01-23T23:23:51.103Z,113.97
2019-01-23T23:26:20.059Z,113.37
2019-01-23T23:28:48.679Z,116.03
2019-01-23T23:31:17.265Z,108.47
2019-01-23T23:33:45.887Z,101.83
2019-01-23T23:36:14.737Z,90.80
2019-01-23T23:38:43.698Z,120.60
2019-01-23T23:41:12.270Z,107.03
2019-01-23T23:43:40.883Z,118.70
2019-01-23T23:46:09.824Z,116.77
2019-01-23T23:48:38.715Z,122.80
2019-01-23T23:51:07.329Z,112.33
2019-01-23T23:53:35.952Z,111.03
2019-01-23T23:56:04.569Z,110.13
2019-01-23T23:58:33.179Z,117.83
